sensor_id;sensor_type;location;lat;lon;timestamp;pressure;altitude;pressure_sealevel;temperature;humidity
39435;BME280;30098;51.880;-0.518;2022-08-21T00:00:50;100610.06;;;23.10;40.85
39435;BME280;30098;51.880;-0.518;2022-08-21T00:03:16;100613.16;;;23.08;40.80
39435;BME280;30098;51.880;-0.518;2022-08-21T00:05:46;100643.75;;;23.28;40.71
39435;BME280;30098;51.880;-0.518;2022-08-21T00:08:12;100641.00;;;23.28;40.87
39435;BME280;30098;51.880;-0.518;2022-08-21T00:10:39;100639.03;;;23.28;40.68
39435;BME280;30098;51.880;-0.518;2022-08-21T00:13:05;100642.97;;;23.27;40.77
39435;BME280;30098;51.880;-0.518;2022-08-21T00:15:33;100640.53;;;23.26;40.70
39435;BME280;30098;51.880;-0.518;2022-08-21T00:17:59;100635.03;;;23.26;40.71
39435;BME280;30098;51.880;-0.518;2022-08-21T00:20:25;100637.47;;;23.27;40.65
39435;BME280;30098;51.880;-0.518;2022-08-21T00:22:51;100628.41;;;23.27;40.85
39435;BME280;30098;51.880;-0.518;2022-08-21T00:25:18;100626.47;;;23.27;40.86
39435;BME280;30098;51.880;-0.518;2022-08-21T00:27:44;100623.72;;;23.27;40.68
39435;BME280;30098;51.880;-0.518;2022-08-21T00:30:11;100531.97;;;22.68;40.75
39435;BME280;30098;51.880;-0.518;2022-08-21T00:32:39;100619.66;;;23.25;40.71
39435;BME280;30098;51.880;-0.518;2022-08-21T00:35:07;100620.16;;;23.27;40.68
39435;BME280;30098;51.880;-0.518;2022-08-21T00:37:33;100610.28;;;23.26;40.84
39435;BME280;30098;51.880;-0.518;2022-08-21T00:39:58;100604.78;;;23.26;40.68
39435;BME280;30098;51.880;-0.518;2022-08-21T00:42:24;100557.72;;;23.06;40.67
39435;BME280;30098;51.880;-0.518;2022-08-21T00:44:50;100604.47;;;23.27;40.73
39435;BME280;30098;51.880;-0.518;2022-08-21T00:47:17;100595.75;;;23.25;40.58
39435;BME280;30098;51.880;-0.518;2022-08-21T00:49:44;100559.78;;;23.09;40.58
39435;BME280;30098;51.880;-0.518;2022-08-21T00:52:14;100489.03;;;22.64;40.66
39435;BME280;30098;51.880;-0.518;2022-08-21T00:54:41;100588.31;;;23.26;40.62
39435;BME280;30098;51.880;-0.518;2022-08-21T00:57:13;100587.16;;;23.27;40.75
39435;BME280;30098;51.880;-0.518;2022-08-21T00:59:40;100555.91;;;23.10;40.73
39435;BME280;30098;51.880;-0.518;2022-08-21T01:02:08;100573.63;;;23.22;40.92
39435;BME280;30098;51.880;-0.518;2022-08-21T01:04:34;100580.06;;;23.26;40.89
39435;BME280;30098;51.880;-0.518;2022-08-21T01:07:00;100561.88;;;23.12;40.72
39435;BME280;30098;51.880;-0.518;2022-08-21T01:09:26;100562.53;;;23.09;40.82
39435;BME280;30098;51.880;-0.518;2022-08-21T01:11:52;100581.19;;;23.25;40.73
39435;BME280;30098;51.880;-0.518;2022-08-21T01:14:18;100582.81;;;23.26;40.74
39435;BME280;30098;51.880;-0.518;2022-08-21T01:16:48;100590.25;;;23.25;40.71
39435;BME280;30098;51.880;-0.518;2022-08-21T01:19:15;100588.84;;;23.19;40.71
39435;BME280;30098;51.880;-0.518;2022-08-21T01:21:43;100605.13;;;23.24;40.84
39435;BME280;30098;51.880;-0.518;2022-08-21T01:24:08;100597.69;;;23.25;40.75
39435;BME280;30098;51.880;-0.518;2022-08-21T01:26:35;100599.63;;;23.24;40.69
39435;BME280;30098;51.880;-0.518;2022-08-21T01:31:42;100584.19;;;23.11;40.97
39435;BME280;30098;51.880;-0.518;2022-08-21T01:34:09;100595.97;;;23.20;40.89
39435;BME280;30098;51.880;-0.518;2022-08-21T01:36:35;100609.03;;;23.23;41.02
39435;BME280;30098;51.880;-0.518;2022-08-21T01:39:02;100591.63;;;23.10;40.86
39435;BME280;30098;51.880;-0.518;2022-08-21T01:41:28;100605.13;;;23.24;40.78
39435;BME280;30098;51.880;-0.518;2022-08-21T01:43:53;100598.84;;;23.24;40.77
39435;BME280;30098;51.880;-0.518;2022-08-21T01:46:19;100602.72;;;23.23;40.78
39435;BME280;30098;51.880;-0.518;2022-08-21T01:48:44;100592.53;;;23.23;40.82
39435;BME280;30098;51.880;-0.518;2022-08-21T01:51:10;100598.03;;;23.23;40.90
39435;BME280;30098;51.880;-0.518;2022-08-21T01:53:36;100600.78;;;23.23;40.70
39435;BME280;30098;51.880;-0.518;2022-08-21T01:56:05;100597.25;;;23.23;40.88
39435;BME280;30098;51.880;-0.518;2022-08-21T01:58:31;100591.75;;;23.23;40.79
39435;BME280;30098;51.880;-0.518;2022-08-21T02:00:56;100573.34;;;23.14;40.95
39435;BME280;30098;51.880;-0.518;2022-08-21T02:03:22;100556.31;;;23.00;40.73
39435;BME280;30098;51.880;-0.518;2022-08-21T02:05:47;100568.72;;;23.06;40.88
39435;BME280;30098;51.880;-0.518;2022-08-21T02:08:13;100586.25;;;23.23;40.76
39435;BME280;30098;51.880;-0.518;2022-08-21T02:10:39;100589.00;;;23.23;40.80
39435;BME280;30098;51.880;-0.518;2022-08-21T02:13:06;100582.06;;;23.16;40.78
39435;BME280;30098;51.880;-0.518;2022-08-21T02:15:32;100571.47;;;23.06;40.79
39435;BME280;30098;51.880;-0.518;2022-08-21T02:18:00;100592.88;;;23.22;40.81
39435;BME280;30098;51.880;-0.518;2022-08-21T02:20:32;100594.50;;;23.23;40.69
39435;BME280;30098;51.880;-0.518;2022-08-21T02:22:58;100539.28;;;22.86;40.83
39435;BME280;30098;51.880;-0.518;2022-08-21T02:25:25;100567.56;;;23.07;40.75
39435;BME280;30098;51.880;-0.518;2022-08-21T02:27:52;100590.91;;;23.22;40.62
39435;BME280;30098;51.880;-0.518;2022-08-21T02:30:24;100590.91;;;23.22;40.86
39435;BME280;30098;51.880;-0.518;2022-08-21T02:32:51;100589.31;;;23.21;40.87
39435;BME280;30098;51.880;-0.518;2022-08-21T02:35:17;100593.06;;;23.16;40.90
39435;BME280;30098;51.880;-0.518;2022-08-21T02:37:49;100590.91;;;23.22;40.79
39435;BME280;30098;51.880;-0.518;2022-08-21T02:40:17;100581.88;;;23.22;40.83
39435;BME280;30098;51.880;-0.518;2022-08-21T02:42:43;100592.88;;;23.22;40.83
39435;BME280;30098;51.880;-0.518;2022-08-21T02:45:10;100581.88;;;23.22;40.90
39435;BME280;30098;51.880;-0.518;2022-08-21T02:47:36;100595.63;;;23.22;40.92
39435;BME280;30098;51.880;-0.518;2022-08-21T02:50:02;100594.81;;;23.21;40.87
39435;BME280;30098;51.880;-0.518;2022-08-21T02:52:28;100597.53;;;23.21;40.95
39435;BME280;30098;51.880;-0.518;2022-08-21T02:54:53;100596.41;;;23.22;40.88
39435;BME280;30098;51.880;-0.518;2022-08-21T02:57:18;100579.47;;;23.20;40.92
39435;BME280;30098;51.880;-0.518;2022-08-21T02:59:44;100588.50;;;23.21;40.90
39435;BME280;30098;51.880;-0.518;2022-08-21T03:02:09;100587.72;;;23.20;40.85
39435;BME280;30098;51.880;-0.518;2022-08-21T03:04:36;100590.00;;;23.18;40.94
39435;BME280;30098;51.880;-0.518;2022-08-21T03:07:02;100589.66;;;23.20;40.97
39435;BME280;30098;51.880;-0.518;2022-08-21T03:09:28;100594.66;;;23.18;40.89
39435;BME280;30098;51.880;-0.518;2022-08-21T03:11:53;100595.16;;;23.20;40.85
39435;BME280;30098;51.880;-0.518;2022-08-21T03:14:19;100584.50;;;23.18;40.93
39435;BME280;30098;51.880;-0.518;2022-08-21T03:16:44;100588.50;;;23.21;40.93
39435;BME280;30098;51.880;-0.518;2022-08-21T03:19:10;100582.22;;;23.20;41.01
39435;BME280;30098;51.880;-0.518;2022-08-21T03:21:40;100579.31;;;23.16;40.85
39435;BME280;30098;51.880;-0.518;2022-08-21T03:24:06;100581.41;;;23.20;40.89
39435;BME280;30098;51.880;-0.518;2022-08-21T03:26:32;100574.28;;;23.19;40.84
39435;BME280;30098;51.880;-0.518;2022-08-21T03:28:57;100577.88;;;23.19;40.98
39435;BME280;30098;51.880;-0.518;2022-08-21T03:31:24;100568.00;;;23.18;41.03
39435;BME280;30098;51.880;-0.518;2022-08-21T03:33:51;100575.13;;;23.19;40.88
39435;BME280;30098;51.880;-0.518;2022-08-21T03:36:20;100569.63;;;23.19;40.79
39435;BME280;30098;51.880;-0.518;2022-08-21T03:38:45;100568.00;;;23.18;40.91
39435;BME280;30098;51.880;-0.518;2022-08-21T03:41:11;100574.28;;;23.19;41.00
39435;BME280;30098;51.880;-0.518;2022-08-21T03:43:36;100574.28;;;23.19;40.98
39435;BME280;30098;51.880;-0.518;2022-08-21T03:46:04;100573.50;;;23.18;40.89
39435;BME280;30098;51.880;-0.518;2022-08-21T03:48:32;100489.69;;;22.61;40.89
39435;BME280;30098;51.880;-0.518;2022-08-21T03:50:58;100577.03;;;23.19;40.82
39435;BME280;30098;51.880;-0.518;2022-08-21T03:53:23;100568.00;;;23.18;41.04
39435;BME280;30098;51.880;-0.518;2022-08-21T03:55:51;100573.50;;;23.18;41.11
39435;BME280;30098;51.880;-0.518;2022-08-21T03:58:21;100555.91;;;23.10;41.11
39435;BME280;30098;51.880;-0.518;2022-08-21T04:00:51;100567.19;;;23.18;40.98
39435;BME280;30098;51.880;-0.518;2022-08-21T04:03:17;100564.44;;;23.18;40.97
39435;BME280;30098;51.880;-0.518;2022-08-21T04:05:43;100563.66;;;23.17;41.16
39435;BME280;30098;51.880;-0.518;2022-08-21T04:08:10;100557.50;;;23.11;40.94
39435;BME280;30098;51.880;-0.518;2022-08-21T04:10:37;100568.00;;;23.18;40.97
39435;BME280;30098;51.880;-0.518;2022-08-21T04:13:04;100569.94;;;23.18;40.99
39435;BME280;30098;51.880;-0.518;2022-08-21T04:15:30;100556.19;;;23.18;41.13
39435;BME280;30098;51.880;-0.518;2022-08-21T04:17:56;100534.19;;;22.96;40.93
39435;BME280;30098;51.880;-0.518;2022-08-21T04:20:22;100563.97;;;23.15;40.90
39435;BME280;30098;51.880;-0.518;2022-08-21T04:22:49;100563.13;;;23.15;40.92
39435;BME280;30098;51.880;-0.518;2022-08-21T04:25:16;100515.16;;;22.91;40.96
39435;BME280;30098;51.880;-0.518;2022-08-21T04:27:42;100553.63;;;23.12;40.95
39435;BME280;30098;51.880;-0.518;2022-08-21T04:30:08;100540.28;;;23.02;40.97
39435;BME280;30098;51.880;-0.518;2022-08-21T04:32:35;100571.06;;;23.16;40.94
39435;BME280;30098;51.880;-0.518;2022-08-21T04:35:04;100573.00;;;23.16;41.01
39435;BME280;30098;51.880;-0.518;2022-08-21T04:37:30;100572.19;;;23.15;40.94
39435;BME280;30098;51.880;-0.518;2022-08-21T04:39:56;100572.19;;;23.15;40.94
39435;BME280;30098;51.880;-0.518;2022-08-21T04:42:27;100587.06;;;23.14;40.93
39435;BME280;30098;51.880;-0.518;2022-08-21T04:44:54;100583.19;;;23.15;40.93
39435;BME280;30098;51.880;-0.518;2022-08-21T04:47:22;100574.13;;;23.15;40.82
39435;BME280;30098;51.880;-0.518;2022-08-21T04:49:48;100571.38;;;23.15;40.97
39435;BME280;30098;51.880;-0.518;2022-08-21T04:52:18;100571.72;;;23.13;41.01
39435;BME280;30098;51.880;-0.518;2022-08-21T04:54:45;100565.44;;;23.13;41.02
39435;BME280;30098;51.880;-0.518;2022-08-21T04:57:12;100483.13;;;22.53;40.99
39435;BME280;30098;51.880;-0.518;2022-08-21T04:59:49;100557.78;;;22.97;41.25
39435;BME280;30098;51.880;-0.518;2022-08-21T05:02:16;100589.00;;;23.14;40.75
39435;BME280;30098;51.880;-0.518;2022-08-21T05:04:49;100594.50;;;23.14;40.98
39435;BME280;30098;51.880;-0.518;2022-08-21T05:07:20;100590.16;;;23.13;40.96
39435;BME280;30098;51.880;-0.518;2022-08-21T05:09:47;100595.66;;;23.13;41.02
39435;BME280;30098;51.880;-0.518;2022-08-21T05:12:13;100587.41;;;23.13;41.05
39435;BME280;30098;51.880;-0.518;2022-08-21T05:14:39;100596.47;;;23.13;41.03
39435;BME280;30098;51.880;-0.518;2022-08-21T05:17:05;100588.06;;;23.10;41.08
39435;BME280;30098;51.880;-0.518;2022-08-21T05:19:31;100608.59;;;23.12;41.03
39435;BME280;30098;51.880;-0.518;2022-08-21T05:21:56;100614.09;;;23.12;40.98
39435;BME280;30098;51.880;-0.518;2022-08-21T05:24:23;100629.78;;;23.12;41.05
39435;BME280;30098;51.880;-0.518;2022-08-21T05:26:48;100627.81;;;23.12;40.95
39435;BME280;30098;51.880;-0.518;2022-08-21T05:29:15;100615.41;;;23.06;40.98
39435;BME280;30098;51.880;-0.518;2022-08-21T05:31:40;100630.56;;;23.12;40.96
39435;BME280;30098;51.880;-0.518;2022-08-21T05:34:06;100635.28;;;23.12;40.99
39435;BME280;30098;51.880;-0.518;2022-08-21T05:36:31;100611.25;;;23.00;40.80
39435;BME280;30098;51.880;-0.518;2022-08-21T05:38:57;100642.38;;;23.13;40.96
39435;BME280;30098;51.880;-0.518;2022-08-21T05:41:23;100640.78;;;23.12;41.02
39435;BME280;30098;51.880;-0.518;2022-08-21T05:43:48;100639.94;;;23.11;40.98
39435;BME280;30098;51.880;-0.518;2022-08-21T05:46:14;100645.44;;;23.11;40.96
39435;BME280;30098;51.880;-0.518;2022-08-21T05:48:40;100644.66;;;23.11;40.99
39435;BME280;30098;51.880;-0.518;2022-08-21T05:51:08;100624.53;;;22.98;41.05
39435;BME280;30098;51.880;-0.518;2022-08-21T05:53:35;100632.84;;;23.10;40.99
39435;BME280;30098;51.880;-0.518;2022-08-21T05:56:00;100632.84;;;23.10;40.91
39435;BME280;30098;51.880;-0.518;2022-08-21T05:58:29;100635.59;;;23.10;40.88
39435;BME280;30098;51.880;-0.518;2022-08-21T06:00:56;100639.00;;;23.07;41.07
39435;BME280;30098;51.880;-0.518;2022-08-21T06:03:34;100631.22;;;23.09;40.96
39435;BME280;30098;51.880;-0.518;2022-08-21T06:06:00;100633.97;;;23.09;41.00
39435;BME280;30098;51.880;-0.518;2022-08-21T06:08:27;100632.03;;;23.10;40.99
39435;BME280;30098;51.880;-0.518;2022-08-21T06:10:55;100627.69;;;23.09;41.07
39435;BME280;30098;51.880;-0.518;2022-08-21T06:13:22;100639.47;;;23.09;40.97
39435;BME280;30098;51.880;-0.518;2022-08-21T06:15:48;100639.47;;;23.09;41.07
39435;BME280;30098;51.880;-0.518;2022-08-21T06:18:14;100622.91;;;22.97;41.31
39435;BME280;30098;51.880;-0.518;2022-08-21T06:20:41;100646.91;;;23.09;41.34
39435;BME280;30098;51.880;-0.518;2022-08-21T06:23:07;100641.41;;;23.09;41.03
39435;BME280;30098;51.880;-0.518;2022-08-21T06:25:33;100648.88;;;23.08;41.04
39435;BME280;30098;51.880;-0.518;2022-08-21T06:28:06;100651.63;;;23.08;40.93
39435;BME280;30098;51.880;-0.518;2022-08-21T06:30:32;100646.13;;;23.08;41.02
39435;BME280;30098;51.880;-0.518;2022-08-21T06:32:58;100643.38;;;23.08;41.07
39435;BME280;30098;51.880;-0.518;2022-08-21T06:35:24;100636.28;;;23.07;41.24
39435;BME280;30098;51.880;-0.518;2022-08-21T06:37:54;100639.81;;;23.08;40.85
39435;BME280;30098;51.880;-0.518;2022-08-21T06:40:20;100634.31;;;23.08;41.01
39435;BME280;30098;51.880;-0.518;2022-08-21T06:42:46;100640.63;;;23.08;41.06
39435;BME280;30098;51.880;-0.518;2022-08-21T06:45:11;100636.28;;;23.07;40.99
39435;BME280;30098;51.880;-0.518;2022-08-21T06:47:37;100621.72;;;23.07;40.96
39435;BME280;30098;51.880;-0.518;2022-08-21T06:50:03;100615.28;;;23.03;41.02
39435;BME280;30098;51.880;-0.518;2022-08-21T06:52:29;100615.41;;;23.06;41.02
39435;BME280;30098;51.880;-0.518;2022-08-21T06:54:55;100622.06;;;23.05;41.03
39435;BME280;30098;51.880;-0.518;2022-08-21T06:57:21;100625.59;;;23.06;41.27
39435;BME280;30098;51.880;-0.518;2022-08-21T06:59:47;100596.28;;;22.89;41.04
39435;BME280;30098;51.880;-0.518;2022-08-21T07:02:12;100553.47;;;22.66;41.04
39435;BME280;30098;51.880;-0.518;2022-08-21T07:04:38;100607.53;;;23.05;41.16
39435;BME280;30098;51.880;-0.518;2022-08-21T07:07:03;100608.97;;;23.02;41.09
39435;BME280;30098;51.880;-0.518;2022-08-21T07:09:29;100603.34;;;22.98;41.08
39435;BME280;30098;51.880;-0.518;2022-08-21T07:11:55;100592.69;;;22.97;41.03
39435;BME280;30098;51.880;-0.518;2022-08-21T07:14:21;100606.69;;;23.04;41.01
39435;BME280;30098;51.880;-0.518;2022-08-21T07:16:48;100612.66;;;23.06;41.20
39435;BME280;30098;51.880;-0.518;2022-08-21T07:19:14;100614.72;;;23.09;41.23
39435;BME280;30098;51.880;-0.518;2022-08-21T07:21:39;100616.34;;;23.10;41.08
39435;BME280;30098;51.880;-0.518;2022-08-21T07:24:05;100610.19;;;23.13;41.21
39435;BME280;30098;51.880;-0.518;2022-08-21T07:26:30;100615.34;;;23.15;41.20
39435;BME280;30098;51.880;-0.518;2022-08-21T07:28:56;100622.97;;;23.18;41.26
39435;BME280;30098;51.880;-0.518;2022-08-21T07:31:23;100608.59;;;23.12;41.14
39435;BME280;30098;51.880;-0.518;2022-08-21T07:33:49;100619.22;;;23.23;41.02
39435;BME280;30098;51.880;-0.518;2022-08-21T07:36:15;100505.63;;;22.46;41.07
39435;BME280;30098;51.880;-0.518;2022-08-21T07:38:41;100612.94;;;23.13;41.12
39435;BME280;30098;51.880;-0.518;2022-08-21T07:41:14;100629.34;;;23.31;40.87
39435;BME280;30098;51.880;-0.518;2022-08-21T07:43:40;100621.56;;;23.33;40.91
39435;BME280;30098;51.880;-0.518;2022-08-21T07:46:05;100606.31;;;23.36;40.76
39435;BME280;30098;51.880;-0.518;2022-08-21T07:48:31;100596.69;;;23.29;40.86
39435;BME280;30098;51.880;-0.518;2022-08-21T07:50:58;100604.06;;;23.38;40.78
39435;BME280;30098;51.880;-0.518;2022-08-21T07:53:23;100608.06;;;23.40;40.85
39435;BME280;30098;51.880;-0.518;2022-08-21T07:55:49;100612.44;;;23.41;40.78
39435;BME280;30098;51.880;-0.518;2022-08-21T07:58:14;100602.56;;;23.40;40.60
39435;BME280;30098;51.880;-0.518;2022-08-21T08:00:40;100584.41;;;23.27;40.91
39435;BME280;30098;51.880;-0.518;2022-08-21T08:03:06;100611.44;;;23.46;41.12
39435;BME280;30098;51.880;-0.518;2022-08-21T08:05:32;100619.03;;;23.49;40.92
39435;BME280;30098;51.880;-0.518;2022-08-21T08:07:58;100624.16;;;23.51;41.04
39435;BME280;30098;51.880;-0.518;2022-08-21T08:10:24;100600.50;;;23.37;40.90
39435;BME280;30098;51.880;-0.518;2022-08-21T08:12:50;100617.19;;;23.53;40.91
39435;BME280;30098;51.880;-0.518;2022-08-21T08:15:23;100611.69;;;23.53;40.81
39435;BME280;30098;51.880;-0.518;2022-08-21T08:17:49;100596.88;;;23.45;40.78
39435;BME280;30098;51.880;-0.518;2022-08-21T08:20:16;100609.88;;;23.57;41.15
39435;BME280;30098;51.880;-0.518;2022-08-21T08:22:44;100611.47;;;23.58;41.03
39435;BME280;30098;51.880;-0.518;2022-08-21T08:25:12;100606.44;;;23.60;40.97
39435;BME280;30098;51.880;-0.518;2022-08-21T08:27:38;100592.31;;;23.50;41.00
39435;BME280;30098;51.880;-0.518;2022-08-21T08:30:05;100612.44;;;23.62;41.03
39435;BME280;30098;51.880;-0.518;2022-08-21T08:32:31;100606.56;;;23.64;41.01
39435;BME280;30098;51.880;-0.518;2022-08-21T08:34:56;100614.47;;;23.66;40.92
39435;BME280;30098;51.880;-0.518;2022-08-21T08:37:22;100607.84;;;23.67;40.88
39435;BME280;30098;51.880;-0.518;2022-08-21T08:39:47;100601.22;;;23.68;40.88
39435;BME280;30098;51.880;-0.518;2022-08-21T08:42:35;100622.84;;;23.69;40.73
39435;BME280;30098;51.880;-0.518;2022-08-21T08:45:19;100610.72;;;23.70;40.65
39435;BME280;30098;51.880;-0.518;2022-08-21T08:47:51;100624.13;;;23.72;40.95
39435;BME280;30098;51.880;-0.518;2022-08-21T08:50:33;100625.75;;;23.73;41.02
39435;BME280;30098;51.880;-0.518;2022-08-21T08:53:12;100587.59;;;23.50;40.80
39435;BME280;30098;51.880;-0.518;2022-08-21T08:55:42;100627.00;;;23.75;40.85
39435;BME280;30098;51.880;-0.518;2022-08-21T08:58:32;100620.38;;;23.76;40.91
39435;BME280;30098;51.880;-0.518;2022-08-21T09:00:56;100611.41;;;23.67;40.93
39435;BME280;30098;51.880;-0.518;2022-08-21T09:03:23;100627.97;;;23.79;41.00
39435;BME280;30098;51.880;-0.518;2022-08-21T09:05:55;100592.69;;;23.60;40.99
39435;BME280;30098;51.880;-0.518;2022-08-21T09:08:54;100631.97;;;23.82;40.88
39435;BME280;30098;51.880;-0.518;2022-08-21T09:11:29;100624.53;;;23.83;40.97
39435;BME280;30098;51.880;-0.518;2022-08-21T09:14:12;100623.84;;;23.86;41.02
39435;BME280;30098;51.880;-0.518;2022-08-21T09:16:50;100623.84;;;23.86;41.01
39435;BME280;30098;51.880;-0.518;2022-08-21T09:25:15;100611.69;;;23.87;40.87
39435;BME280;30098;51.880;-0.518;2022-08-21T09:27:43;100619.28;;;23.90;41.05
39435;BME280;30098;51.880;-0.518;2022-08-21T09:30:10;100541.38;;;23.31;40.94
39435;BME280;30098;51.880;-0.518;2022-08-21T09:32:37;100633.50;;;23.92;40.98
39435;BME280;30098;51.880;-0.518;2022-08-21T09:35:15;100626.88;;;23.93;40.77
39435;BME280;30098;51.880;-0.518;2022-08-21T09:37:57;100636.75;;;23.94;41.23
39435;BME280;30098;51.880;-0.518;2022-08-21T09:40:31;100640.28;;;23.94;40.92
39435;BME280;30098;51.880;-0.518;2022-08-21T09:43:02;100635.59;;;23.95;40.99
39435;BME280;30098;51.880;-0.518;2022-08-21T09:45:27;100618.00;;;23.87;40.85
39435;BME280;30098;51.880;-0.518;2022-08-21T09:47:53;100640.75;;;23.97;41.16
39435;BME280;30098;51.880;-0.518;2022-08-21T09:50:26;100634.13;;;23.98;40.97
39435;BME280;30098;51.880;-0.518;2022-08-21T09:52:55;100636.53;;;23.99;41.08
39435;BME280;30098;51.880;-0.518;2022-08-21T09:55:34;100634.25;;;24.01;41.06
39435;BME280;30098;51.880;-0.518;2022-08-21T09:58:30;100638.59;;;24.02;40.84
39435;BME280;30098;51.880;-0.518;2022-08-21T10:00:59;100636.66;;;24.03;40.73
39435;BME280;30098;51.880;-0.518;2022-08-21T10:03:25;100641.00;;;24.04;40.96
39435;BME280;30098;51.880;-0.518;2022-08-21T10:06:03;100642.63;;;24.05;41.11
39435;BME280;30098;51.880;-0.518;2022-08-21T10:08:32;100635.16;;;24.05;41.01
39435;BME280;30098;51.880;-0.518;2022-08-21T10:11:04;100637.59;;;24.07;40.82
39435;BME280;30098;51.880;-0.518;2022-08-21T10:21:43;100632.53;;;24.09;41.16
39435;BME280;30098;51.880;-0.518;2022-08-21T10:24:26;100629.78;;;24.09;41.31
39435;BME280;30098;51.880;-0.518;2022-08-21T10:26:57;100628.19;;;24.08;41.01
39435;BME280;30098;51.880;-0.518;2022-08-21T10:34:48;100644.59;;;24.04;41.07
39435;BME280;30098;51.880;-0.518;2022-08-21T10:40:24;100632.63;;;24.00;41.36
39435;BME280;30098;51.880;-0.518;2022-08-21T10:42:54;100627.81;;;23.97;41.42
39435;BME280;30098;51.880;-0.518;2022-08-21T10:48:06;100633.19;;;23.93;41.09
39435;BME280;30098;51.880;-0.518;2022-08-21T10:50:43;100622.47;;;23.92;41.42
39435;BME280;30098;51.880;-0.518;2022-08-21T10:53:33;100619.28;;;23.90;41.62
39435;BME280;30098;51.880;-0.518;2022-08-21T10:56:12;100620.75;;;23.87;41.49
39435;BME280;30098;51.880;-0.518;2022-08-21T10:58:49;100599.72;;;23.70;41.51
39435;BME280;30098;51.880;-0.518;2022-08-21T11:01:43;100624.19;;;23.84;41.50
39435;BME280;30098;51.880;-0.518;2022-08-21T11:07:03;100627.59;;;23.81;41.63
39435;BME280;30098;51.880;-0.518;2022-08-21T11:09:31;100622.44;;;23.79;41.41
39435;BME280;30098;51.880;-0.518;2022-08-21T11:12:03;100626.34;;;23.78;41.45
39435;BME280;30098;51.880;-0.518;2022-08-21T11:17:16;100631.38;;;23.76;41.45
39435;BME280;30098;51.880;-0.518;2022-08-21T11:19:57;100635.25;;;23.75;41.39
39435;BME280;30098;51.880;-0.518;2022-08-21T11:22:48;100633.69;;;23.74;41.57
39435;BME280;30098;51.880;-0.518;2022-08-21T11:25:35;100634.81;;;23.73;41.62
39435;BME280;30098;51.880;-0.518;2022-08-21T11:28:08;100647.75;;;23.73;41.65
39435;BME280;30098;51.880;-0.518;2022-08-21T11:36:34;100653.13;;;23.69;41.48
39435;BME280;30098;51.880;-0.518;2022-08-21T11:39:30;100646.00;;;23.68;41.50
39435;BME280;30098;51.880;-0.518;2022-08-21T11:50:22;100645.09;;;23.64;41.66
39435;BME280;30098;51.880;-0.518;2022-08-21T11:53:01;100555.75;;;23.07;41.45
39435;BME280;30098;51.880;-0.518;2022-08-21T11:55:31;100645.44;;;23.62;41.65
39435;BME280;30098;51.880;-0.518;2022-08-21T11:58:17;100641.06;;;23.61;41.58
39435;BME280;30098;51.880;-0.518;2022-08-21T12:01:03;100641.06;;;23.61;41.50
39435;BME280;30098;51.880;-0.518;2022-08-21T12:03:36;100630.41;;;23.60;41.66
39435;BME280;30098;51.880;-0.518;2022-08-21T12:06:13;100638.66;;;23.60;41.72
39435;BME280;30098;51.880;-0.518;2022-08-21T12:08:42;100633.34;;;23.55;41.79
39435;BME280;30098;51.880;-0.518;2022-08-21T12:13:53;100629.94;;;23.58;41.58
39435;BME280;30098;51.880;-0.518;2022-08-21T12:16:35;100633.03;;;23.56;41.77
39435;BME280;30098;51.880;-0.518;2022-08-21T12:19:29;100633.81;;;23.57;41.74
39435;BME280;30098;51.880;-0.518;2022-08-21T12:24:45;100628.66;;;23.55;41.63
39435;BME280;30098;51.880;-0.518;2022-08-21T12:27:23;100622.34;;;23.55;41.70
39435;BME280;30098;51.880;-0.518;2022-08-21T12:30:06;100622.34;;;23.55;41.94
39435;BME280;30098;51.880;-0.518;2022-08-21T12:35:20;100624.66;;;23.53;41.85
39435;BME280;30098;51.880;-0.518;2022-08-21T12:37:58;100613.66;;;23.53;41.71
39435;BME280;30098;51.880;-0.518;2022-08-21T12:40:30;100617.53;;;23.52;41.69
39435;BME280;30098;51.880;-0.518;2022-08-21T12:42:59;100614.78;;;23.52;41.66
39435;BME280;30098;51.880;-0.518;2022-08-21T12:45:31;100613.97;;;23.51;41.79
39435;BME280;30098;51.880;-0.518;2022-08-21T12:50:50;100606.06;;;23.50;41.67
39435;BME280;30098;51.880;-0.518;2022-08-21T12:55:51;100602.53;;;23.49;41.76
39435;BME280;30098;51.880;-0.518;2022-08-21T12:58:24;100608.81;;;23.50;41.74
39435;BME280;30098;51.880;-0.518;2022-08-21T13:00:53;100600.91;;;23.48;41.77
39435;BME280;30098;51.880;-0.518;2022-08-21T13:03:21;100609.94;;;23.48;41.74
39435;BME280;30098;51.880;-0.518;2022-08-21T13:05:47;100609.16;;;23.48;41.72
39435;BME280;30098;51.880;-0.518;2022-08-21T13:08:13;100611.09;;;23.47;41.66
39435;BME280;30098;51.880;-0.518;2022-08-21T13:10:41;100601.22;;;23.46;41.72
39435;BME280;30098;51.880;-0.518;2022-08-21T13:13:10;100594.94;;;23.46;41.60
39435;BME280;30098;51.880;-0.518;2022-08-21T13:15:39;100604.78;;;23.47;41.65
39435;BME280;30098;51.880;-0.518;2022-08-21T13:18:06;100560.69;;;23.22;41.63
39435;BME280;30098;51.880;-0.518;2022-08-21T13:23:06;100497.63;;;22.83;41.76
39435;BME280;30098;51.880;-0.518;2022-08-21T13:25:36;100599.63;;;23.45;41.74
39435;BME280;30098;51.880;-0.518;2022-08-21T13:28:08;100591.72;;;23.44;41.68
39435;BME280;30098;51.880;-0.518;2022-08-21T13:30:40;100596.88;;;23.45;41.71
39435;BME280;30098;51.880;-0.518;2022-08-21T13:33:08;100588.97;;;23.44;41.86
39435;BME280;30098;51.880;-0.518;2022-08-21T13:35:45;100586.28;;;23.35;41.55
39435;BME280;30098;51.880;-0.518;2022-08-21T13:38:12;100595.59;;;23.43;41.60
39435;BME280;30098;51.880;-0.518;2022-08-21T13:40:52;100590.09;;;23.43;41.65
39435;BME280;30098;51.880;-0.518;2022-08-21T13:43:21;100593.66;;;23.43;41.79
39435;BME280;30098;51.880;-0.518;2022-08-21T13:45:51;100592.06;;;23.42;41.68
39435;BME280;30098;51.880;-0.518;2022-08-21T13:48:18;100594.81;;;23.42;41.79
39435;BME280;30098;51.880;-0.518;2022-08-21T13:50:44;100564.25;;;23.23;41.65
39435;BME280;30098;51.880;-0.518;2022-08-21T13:53:45;100589.31;;;23.42;41.69